ESMT

Halmstad Airport

Halmstad, Sweden
TAF ESMT 221709Z 2218/2221 28006KT CAVOK
Issued Valid From Valid To
Jul-22 @ 17:09 UTC
(3 hours ago)
Jul-22 @ 18:00 UTC
(2 hours ago)
Jul-22 @ 21:00 UTC
(in 58 minutes)
Jul-22 @ 18:00 to Jul-22 @ 21:00
TAF ESMT 221709Z 2218/2221 28006KT CAVOK
Wind Visibility Clouds Conditions
280° at 6 knots 10,000+ meters
  • No significant clouds
TAF ESMT 221709Z 2218/2221 28006KT CAVOK
Issued Jul-22 @ 17:09 UTC
(3 hours ago)
Valid From Jul-22 @ 18:00 UTC
(2 hours ago)
Valid To Jul-22 @ 21:00 UTC
(in 58 minutes)
Jul-22 @ 18:00 - Jul-22 @ 21:00
Wind Visibility
280° at 6 knots 10,000+ meters
Clouds
  • No significant clouds
Conditions